Ashland, Alabama
Current Conditions -  °F | °C
As of 9:53 AM on Friday 31 Oct 2014 (Local Time) from KANB Reporting Station
Light Rain Light Rain  
Wind Chill: 51°   Ceiling: 7000
Heat Index: 51°   Visibility: 10mi
Dew Point: 46°   Wind: 3mph
Humidity: 83%   Direction: 230°SW
Pressure: 30"   Gusts: NA
Location:  33.27°N, 85.84°W
Report Text: KANB 311453Z AUTO 23003KT 10SM -RA FEW055 BKN070 OVC085 11/08 A3000 RMK AO2 RAB45 SLP162 P0000 60000 T01060078 50003
Loading
Personal Weather Stations






























Interactive Weather Map
Tropical Storm Tracking
New forecast layout! Learn more

10-Day Weather Forecast

Advertisements
Track Severe Weather on mobile